createdAt,value
2023-06-26T00:00:58.398Z,1.16
2023-06-26T00:01:58.369Z,1.17
2023-06-26T00:02:58.445Z,1.17
2023-06-26T00:03:58.503Z,1.16
2023-06-26T00:04:58.429Z,1.18
2023-06-26T00:05:58.427Z,1.17
2023-06-26T00:06:58.467Z,1.16
2023-06-26T00:07:58.450Z,1.18
2023-06-26T00:08:58.456Z,1.18
2023-06-26T00:09:58.492Z,1.19
2023-06-26T00:10:58.500Z,1.18
2023-06-26T00:11:58.509Z,1.18
2023-06-26T00:12:58.531Z,1.18
2023-06-26T00:13:58.550Z,1.21
2023-06-26T00:14:58.552Z,1.18
2023-06-26T00:15:58.580Z,1.20
2023-06-26T00:16:58.592Z,1.16
2023-06-26T00:17:58.664Z,1.20
2023-06-26T00:18:58.627Z,1.18
2023-06-26T00:19:58.630Z,1.18
2023-06-26T00:20:58.666Z,1.17
2023-06-26T00:21:58.668Z,1.19
2023-06-26T00:22:58.701Z,1.19
2023-06-26T00:23:58.706Z,1.19
2023-06-26T00:24:58.750Z,1.20
2023-06-26T00:25:58.768Z,1.22
2023-06-26T00:26:58.772Z,1.20
2023-06-26T00:27:58.779Z,1.23
2023-06-26T00:28:58.812Z,1.21
2023-06-26T00:29:58.826Z,1.18
2023-06-26T00:30:58.887Z,1.19
2023-06-26T00:31:58.858Z,1.21
2023-06-26T00:32:58.918Z,1.21
2023-06-26T00:33:58.894Z,1.19
2023-06-26T00:34:58.912Z,1.20
2023-06-26T00:35:58.920Z,1.22
2023-06-26T00:36:58.942Z,1.21
2023-06-26T00:37:58.973Z,1.21
2023-06-26T00:38:58.980Z,1.20
2023-06-26T00:39:59.018Z,1.22
2023-06-26T00:40:59.085Z,1.20
2023-06-26T00:41:59.024Z,1.22
2023-06-26T00:42:59.057Z,1.21
2023-06-26T00:43:59.070Z,1.20
2023-06-26T00:44:59.094Z,1.22
2023-06-26T00:45:59.139Z,1.20
2023-06-26T00:46:59.133Z,1.22
2023-06-26T00:47:59.172Z,1.21
2023-06-26T00:48:59.174Z,1.19
2023-06-26T00:49:59.206Z,1.22
2023-06-26T00:50:59.213Z,1.22
2023-06-26T00:51:59.218Z,1.18
2023-06-26T00:52:59.260Z,1.21
2023-06-26T00:53:59.262Z,1.20
2023-06-26T00:54:59.282Z,1.22
2023-06-26T00:55:59.294Z,1.20
2023-06-26T00:56:59.318Z,1.19
2023-06-26T00:57:59.356Z,1.21
2023-06-26T00:58:59.365Z,1.22
2023-06-26T00:59:59.396Z,1.19
2023-06-26T01:00:59.391Z,1.18
2023-06-26T01:01:59.421Z,1.18
2023-06-26T01:02:59.479Z,1.20
2023-06-26T01:03:59.439Z,1.23
2023-06-26T01:04:59.483Z,1.21
2023-06-26T01:06:08.735Z,1.22
2023-06-26T01:06:59.492Z,1.22
2023-06-26T01:07:59.490Z,1.23
2023-06-26T01:08:59.465Z,1.24
2023-06-26T01:09:59.740Z,1.23
2023-06-26T01:10:59.453Z,1.27
2023-06-26T01:11:59.450Z,1.23
2023-06-26T01:12:59.442Z,1.25
2023-06-26T01:13:59.438Z,1.22
2023-06-26T01:14:59.427Z,1.23
2023-06-26T01:15:59.448Z,1.23
2023-06-26T01:16:59.444Z,1.22
2023-06-26T01:17:59.450Z,1.21
2023-06-26T01:18:59.397Z,1.21
2023-06-26T01:19:59.432Z,1.22
2023-06-26T01:20:59.373Z,1.22
2023-06-26T01:21:59.402Z,1.19
2023-06-26T01:22:59.360Z,1.17
2023-06-26T01:23:59.373Z,1.21
2023-06-26T01:24:59.348Z,1.21
2023-06-26T01:25:59.348Z,1.22
2023-06-26T01:26:59.336Z,1.20
2023-06-26T01:27:59.342Z,1.21
2023-06-26T01:28:59.321Z,1.20
2023-06-26T01:29:59.320Z,1.23
2023-06-26T01:30:59.312Z,1.20
2023-06-26T01:31:59.416Z,1.17
2023-06-26T01:32:59.368Z,1.24
2023-06-26T01:33:59.289Z,1.21
2023-06-26T01:34:59.295Z,1.21
2023-06-26T01:35:59.283Z,1.19
2023-06-26T01:36:59.275Z,1.20
2023-06-26T01:37:59.265Z,1.19
2023-06-26T01:38:59.254Z,1.17
2023-06-26T01:39:59.278Z,1.20
2023-06-26T01:40:59.245Z,1.21
2023-06-26T01:41:59.236Z,1.19
2023-06-26T01:42:59.235Z,1.22
2023-06-26T01:43:59.232Z,1.22
2023-06-26T01:44:59.223Z,1.19
2023-06-26T01:45:59.334Z,1.18
2023-06-26T01:46:59.203Z,1.20
2023-06-26T01:47:59.228Z,1.19
2023-06-26T01:48:59.191Z,1.18
2023-06-26T01:49:59.184Z,1.19
2023-06-26T01:50:59.185Z,1.19
2023-06-26T01:51:59.167Z,1.21
2023-06-26T01:52:59.164Z,1.20
2023-06-26T01:53:59.157Z,1.20
2023-06-26T01:54:59.157Z,1.21
2023-06-26T01:55:59.162Z,1.20
2023-06-26T01:56:59.202Z,1.20
2023-06-26T01:57:59.127Z,1.21
2023-06-26T01:58:59.115Z,1.20
2023-06-26T01:59:59.132Z,1.19
2023-06-26T02:00:59.162Z,1.18
2023-06-26T02:01:59.169Z,1.19
2023-06-26T02:02:59.230Z,1.19
2023-06-26T02:03:59.200Z,1.21
2023-06-26T02:04:59.086Z,1.21
2023-06-26T02:05:59.087Z,1.18
2023-06-26T02:06:59.099Z,1.20
2023-06-26T02:07:59.077Z,1.22
2023-06-26T02:08:59.091Z,1.20
2023-06-26T02:09:59.076Z,1.20
2023-06-26T02:10:59.053Z,1.20
2023-06-26T02:11:59.029Z,1.18
2023-06-26T02:12:59.023Z,1.19
2023-06-26T02:13:59.046Z,1.21
2023-06-26T02:14:59.073Z,1.19
2023-06-26T02:15:59.105Z,1.20
2023-06-26T02:16:59.135Z,1.20
2023-06-26T02:17:59.167Z,1.17
2023-06-26T02:18:59.216Z,1.20
2023-06-26T02:19:59.232Z,1.22
2023-06-26T02:20:59.259Z,1.22
2023-06-26T02:21:59.305Z,1.22
2023-06-26T02:22:59.315Z,1.21
2023-06-26T02:23:59.379Z,1.20
2023-06-26T02:24:59.393Z,1.20
2023-06-26T02:25:59.429Z,1.19
2023-06-26T02:26:59.462Z,1.19
2023-06-26T02:27:59.508Z,1.19
2023-06-26T02:28:59.540Z,1.22
2023-06-26T02:29:59.571Z,1.21
2023-06-26T02:30:59.636Z,1.19
2023-06-26T02:31:59.633Z,1.22
2023-06-26T02:32:59.724Z,1.20
2023-06-26T02:33:59.676Z,1.20
2023-06-26T02:34:59.715Z,1.18
2023-06-26T02:35:59.763Z,1.19
2023-06-26T02:36:59.795Z,1.22
2023-06-26T02:37:59.814Z,1.19
2023-06-26T02:38:59.848Z,1.19
2023-06-26T02:39:59.940Z,1.21
2023-06-26T02:40:59.929Z,1.19
2023-06-26T02:41:59.950Z,1.21
2023-06-26T02:42:59.996Z,1.19
2023-06-26T02:44:00.058Z,1.19
2023-06-26T02:45:00.047Z,1.19
2023-06-26T02:46:00.093Z,1.18
2023-06-26T02:47:00.123Z,1.20
2023-06-26T02:48:00.202Z,1.21
2023-06-26T02:49:00.174Z,1.22
2023-06-26T02:50:00.223Z,1.16
2023-06-26T02:51:00.249Z,1.17
2023-06-26T02:52:00.278Z,1.19
2023-06-26T02:53:00.316Z,1.19
2023-06-26T02:54:00.325Z,1.17
2023-06-26T02:55:00.361Z,1.20
2023-06-26T02:56:00.400Z,1.20
2023-06-26T02:57:00.420Z,1.15
2023-06-26T02:58:00.485Z,1.22
2023-06-26T02:59:00.491Z,1.17
2023-06-26T03:00:00.530Z,1.20
2023-06-26T03:01:00.610Z,1.17
2023-06-26T03:02:00.604Z,1.21
2023-06-26T03:03:00.666Z,1.19
2023-06-26T03:04:00.685Z,1.20
2023-06-26T03:05:00.738Z,1.20
2023-06-26T03:06:00.750Z,1.20
2023-06-26T03:07:00.812Z,1.21
2023-06-26T03:08:00.885Z,1.22
2023-06-26T03:09:00.852Z,1.18
2023-06-26T03:10:00.884Z,1.20
2023-06-26T03:11:00.922Z,1.17
2023-06-26T03:12:00.932Z,1.16
2023-06-26T03:13:00.992Z,1.18
2023-06-26T03:14:01.034Z,1.20
2023-06-26T03:15:01.041Z,1.20
2023-06-26T03:16:01.116Z,1.18
2023-06-26T03:17:01.203Z,1.21
2023-06-26T03:18:01.252Z,1.19
2023-06-26T03:19:01.203Z,1.20
2023-06-26T03:20:01.219Z,1.16
2023-06-26T03:21:01.306Z,1.19
2023-06-26T03:22:01.286Z,1.19
2023-06-26T03:23:01.335Z,1.17
2023-06-26T03:24:01.371Z,1.20
2023-06-26T03:25:01.423Z,1.17
2023-06-26T03:26:01.442Z,1.21
2023-06-26T03:27:01.484Z,1.19
2023-06-26T03:28:01.511Z,1.18
2023-06-26T03:29:01.563Z,1.17
2023-06-26T03:30:01.598Z,1.18
2023-06-26T03:31:01.669Z,1.20
2023-06-26T03:32:01.697Z,1.17
2023-06-26T03:33:01.767Z,1.17
2023-06-26T03:34:01.770Z,1.17
2023-06-26T03:35:01.808Z,1.15
2023-06-26T03:36:01.845Z,1.17
2023-06-26T03:37:01.860Z,1.20
2023-06-26T03:38:01.903Z,1.19
2023-06-26T03:39:01.992Z,1.20
2023-06-26T03:40:02.000Z,1.19
2023-06-26T03:41:02.087Z,1.16
2023-06-26T03:42:02.104Z,1.16
2023-06-26T03:43:02.116Z,1.16
2023-06-26T03:44:02.205Z,1.14
2023-06-26T03:45:02.206Z,1.13
2023-06-26T03:46:02.361Z,1.16
2023-06-26T03:47:02.272Z,1.16
2023-06-26T03:48:02.344Z,1.14
2023-06-26T03:49:02.323Z,1.16
2023-06-26T03:50:02.401Z,1.14
2023-06-26T03:51:02.422Z,1.16
2023-06-26T03:52:02.430Z,1.18
2023-06-26T03:53:02.467Z,1.15
2023-06-26T03:54:02.502Z,1.16
2023-06-26T03:55:02.581Z,1.17
2023-06-26T03:56:02.589Z,1.14
2023-06-26T03:57:02.619Z,1.13
2023-06-26T03:58:02.642Z,1.14
2023-06-26T03:59:02.684Z,1.13
2023-06-26T04:00:02.704Z,1.16
2023-06-26T04:01:02.733Z,1.13
2023-06-26T04:02:02.774Z,1.12
2023-06-26T04:03:02.842Z,1.14
2023-06-26T04:04:02.877Z,1.11
2023-06-26T04:05:02.883Z,1.16
2023-06-26T04:06:02.912Z,1.12
2023-06-26T04:07:02.949Z,1.15
2023-06-26T04:08:03.020Z,1.14
2023-06-26T04:09:02.995Z,1.13
2023-06-26T04:10:03.029Z,1.15
2023-06-26T04:11:03.090Z,1.16
2023-06-26T04:12:03.119Z,1.14
2023-06-26T04:13:03.126Z,1.14
2023-06-26T04:14:03.139Z,1.13
2023-06-26T04:15:03.185Z,1.13
2023-06-26T04:16:03.242Z,1.12
2023-06-26T04:17:03.268Z,1.12
2023-06-26T04:18:03.304Z,1.15
2023-06-26T04:19:03.332Z,1.11
2023-06-26T04:20:03.355Z,1.11
2023-06-26T04:21:03.385Z,1.09
2023-06-26T04:22:03.419Z,1.11
2023-06-26T04:23:03.443Z,1.14
2023-06-26T04:24:03.477Z,1.09
2023-06-26T04:25:03.494Z,1.10
2023-06-26T04:26:03.548Z,1.14
2023-06-26T04:27:03.567Z,1.09
2023-06-26T04:28:03.573Z,1.10
2023-06-26T04:29:03.608Z,1.10
2023-06-26T04:30:03.649Z,1.11
2023-06-26T04:31:03.655Z,1.08
2023-06-26T04:32:03.812Z,1.12
2023-06-26T04:33:03.721Z,1.07
2023-06-26T04:34:03.750Z,1.09
2023-06-26T04:35:03.778Z,1.10
2023-06-26T04:36:03.825Z,1.07
2023-06-26T04:37:03.825Z,1.07
2023-06-26T04:38:03.858Z,1.05
2023-06-26T04:39:03.884Z,1.07
2023-06-26T04:40:03.935Z,1.07
2023-06-26T04:41:03.942Z,1.06
2023-06-26T04:42:03.950Z,1.06
2023-06-26T04:43:03.978Z,1.01
2023-06-26T04:44:03.975Z,1.03
2023-06-26T04:45:04.008Z,1.03
2023-06-26T04:46:04.075Z,1.01
2023-06-26T04:47:04.044Z,1.02
2023-06-26T04:48:04.066Z,1.01
2023-06-26T04:49:04.086Z,1.02
2023-06-26T04:50:04.093Z,1.03
2023-06-26T04:51:04.103Z,1.02
2023-06-26T04:52:04.099Z,1.00
2023-06-26T04:53:04.126Z,1.01
2023-06-26T04:54:04.113Z,1.01
2023-06-26T04:55:04.107Z,0.99
2023-06-26T04:56:04.114Z,1.02
2023-06-26T04:57:04.094Z,0.98
2023-06-26T04:58:04.083Z,1.00
2023-06-26T04:59:04.106Z,0.98
2023-06-26T05:00:04.089Z,0.97
2023-06-26T05:01:04.160Z,0.98
2023-06-26T05:02:04.223Z,0.98
2023-06-26T05:03:04.212Z,0.96
2023-06-26T05:04:04.122Z,0.97
2023-06-26T05:05:04.172Z,0.96
2023-06-26T05:06:09.161Z,0.95
2023-06-26T05:07:05.276Z,0.96
2023-06-26T05:08:04.197Z,0.96
2023-06-26T05:09:04.220Z,0.94
2023-06-26T05:10:04.261Z,0.93
2023-06-26T05:11:04.187Z,0.93
2023-06-26T05:12:04.183Z,0.92
2023-06-26T05:13:04.185Z,0.89
2023-06-26T05:14:04.160Z,0.90
2023-06-26T05:15:04.152Z,0.89
2023-06-26T05:16:04.154Z,0.91
2023-06-26T05:17:04.194Z,0.89
2023-06-26T05:18:04.230Z,0.92
2023-06-26T05:19:04.304Z,0.91
2023-06-26T05:20:04.291Z,0.88
2023-06-26T05:21:04.311Z,0.85
2023-06-26T05:22:04.346Z,0.84
2023-06-26T05:23:04.314Z,0.84
2023-06-26T05:24:04.317Z,0.85
2023-06-26T05:25:04.360Z,0.83
2023-06-26T05:26:04.343Z,0.84
2023-06-26T05:27:04.390Z,0.84
2023-06-26T05:28:04.483Z,0.81
2023-06-26T05:29:04.521Z,0.82
2023-06-26T05:30:04.583Z,0.81
2023-06-26T05:31:04.708Z,0.82
2023-06-26T05:32:04.696Z,0.79
2023-06-26T05:33:04.790Z,0.77
2023-06-26T05:34:04.785Z,0.75
2023-06-26T05:35:04.857Z,0.57
2023-06-26T05:36:04.784Z,0.42
2023-06-26T05:37:04.808Z,0.40
2023-06-26T05:38:04.911Z,0.43
2023-06-26T05:39:04.918Z,0.50
2023-06-26T05:40:04.915Z,0.50
2023-06-26T05:41:05.380Z,0.50
2023-06-26T05:42:04.925Z,0.50
2023-06-26T05:43:04.970Z,0.50
2023-06-26T05:44:05.020Z,0.51
2023-06-26T05:45:05.046Z,0.52
2023-06-26T05:46:05.104Z,0.51
2023-06-26T05:47:05.192Z,0.50
2023-06-26T05:48:05.334Z,0.50
2023-06-26T05:49:05.258Z,0.50
2023-06-26T05:50:05.315Z,0.51
2023-06-26T05:51:05.376Z,0.52
2023-06-26T05:52:05.440Z,0.51
2023-06-26T05:53:05.512Z,0.50
2023-06-26T05:54:05.544Z,0.50
2023-06-26T05:55:05.629Z,0.50
2023-06-26T05:56:05.740Z,0.51
2023-06-26T05:57:05.794Z,0.55
2023-06-26T05:58:05.762Z,0.58
2023-06-26T05:59:05.804Z,0.64
2023-06-26T06:00:05.848Z,0.70
2023-06-26T06:01:05.906Z,0.78
2023-06-26T06:02:06.080Z,0.85
2023-06-26T06:03:06.074Z,0.88
2023-06-26T06:04:06.106Z,1.00
2023-06-26T06:05:06.083Z,1.17
2023-06-26T06:06:06.147Z,1.32
2023-06-26T06:07:06.199Z,1.50
2023-06-26T06:08:06.193Z,1.43
2023-06-26T06:09:06.196Z,0.94
2023-06-26T06:10:06.235Z,0.67
2023-06-26T06:11:06.256Z,0.55
2023-06-26T06:12:06.289Z,0.50
2023-06-26T06:13:06.339Z,0.50
2023-06-26T06:14:06.368Z,0.50
2023-06-26T06:15:06.538Z,0.50
2023-06-26T06:16:06.467Z,0.49
2023-06-26T06:17:06.562Z,0.51
2023-06-26T06:18:06.644Z,0.49
2023-06-26T06:19:06.617Z,0.50
2023-06-26T06:20:06.696Z,0.50
2023-06-26T06:21:06.744Z,0.50
2023-06-26T06:22:06.729Z,0.50
2023-06-26T06:23:06.782Z,0.50
2023-06-26T06:24:06.756Z,0.54
2023-06-26T06:25:06.778Z,0.55
2023-06-26T06:26:06.852Z,0.55
2023-06-26T06:27:06.833Z,0.56
2023-06-26T06:28:06.828Z,0.55
2023-06-26T06:29:06.849Z,0.79
2023-06-26T06:30:08.930Z,0.67
2023-06-26T06:31:06.886Z,0.64
2023-06-26T06:32:07.011Z,0.61
2023-06-26T06:33:07.029Z,0.63
2023-06-26T06:34:06.984Z,0.61
2023-06-26T06:35:06.953Z,0.63
2023-06-26T06:36:06.971Z,0.66
2023-06-26T06:37:07.051Z,0.68
2023-06-26T06:38:07.100Z,0.81
2023-06-26T06:39:07.140Z,0.85
2023-06-26T06:40:07.432Z,1.01
2023-06-26T06:41:07.189Z,1.13
2023-06-26T06:42:07.252Z,1.29
2023-06-26T06:43:07.324Z,1.42
2023-06-26T06:44:07.390Z,1.55
2023-06-26T06:45:07.908Z,1.64
2023-06-26T06:46:07.904Z,1.86
2023-06-26T06:47:07.528Z,2.03
2023-06-26T06:48:07.630Z,2.17
2023-06-26T06:49:07.656Z,2.30
2023-06-26T06:50:07.904Z,2.36
2023-06-26T06:51:10.107Z,2.49
2023-06-26T06:52:07.941Z,2.35
2023-06-26T06:53:07.957Z,2.29
2023-06-26T06:54:07.990Z,2.34
2023-06-26T06:55:08.010Z,2.53
2023-06-26T06:56:08.039Z,2.66
2023-06-26T06:57:08.099Z,2.86
2023-06-26T06:58:08.077Z,3.00
2023-06-26T06:59:08.097Z,3.03
2023-06-26T07:00:08.116Z,2.93
2023-06-26T07:01:08.460Z,2.91
2023-06-26T07:02:08.180Z,3.16
2023-06-26T07:03:08.257Z,3.29
2023-06-26T07:04:08.205Z,3.33
2023-06-26T07:05:08.261Z,3.48
2023-06-26T07:06:08.205Z,3.76
2023-06-26T07:07:08.284Z,3.71
2023-06-26T07:08:08.225Z,4.05
2023-06-26T07:09:08.223Z,4.17
2023-06-26T07:10:08.229Z,3.96
2023-06-26T07:11:08.247Z,3.87
2023-06-26T07:12:08.242Z,3.76
2023-06-26T07:13:08.231Z,3.55
2023-06-26T07:14:08.235Z,3.77
2023-06-26T07:15:08.247Z,3.68
2023-06-26T07:16:08.250Z,3.81
2023-06-26T07:17:08.254Z,3.75
2023-06-26T07:18:08.285Z,3.51
2023-06-26T07:19:08.247Z,3.50
2023-06-26T07:20:08.315Z,3.80
2023-06-26T07:21:08.261Z,3.30
2023-06-26T07:22:08.253Z,2.75
2023-06-26T07:23:08.250Z,2.90
2023-06-26T07:24:08.227Z,2.92
2023-06-26T07:25:08.239Z,3.18
2023-06-26T07:26:08.265Z,3.25
2023-06-26T07:27:08.341Z,3.38
2023-06-26T07:28:08.384Z,3.37
2023-06-26T07:29:08.468Z,3.14
2023-06-26T07:30:08.525Z,3.38
2023-06-26T07:31:09.138Z,3.81
2023-06-26T07:32:08.617Z,4.52
2023-06-26T07:33:08.670Z,5.01
2023-06-26T07:34:08.720Z,4.96
2023-06-26T07:35:08.808Z,5.23
2023-06-26T07:36:08.917Z,5.55
2023-06-26T07:37:08.909Z,8.40
2023-06-26T07:38:08.924Z,9.15
2023-06-26T07:39:11.333Z,8.35
2023-06-26T07:40:08.949Z,8.02
2023-06-26T07:41:09.420Z,7.34
2023-06-26T07:42:08.929Z,7.42
2023-06-26T07:43:08.945Z,8.36
2023-06-26T07:44:08.911Z,9.28
2023-06-26T07:45:10.120Z,8.43
2023-06-26T07:46:08.935Z,8.83
2023-06-26T07:47:08.960Z,9.74
2023-06-26T07:48:08.967Z,11.34
2023-06-26T07:49:08.885Z,14.64
2023-06-26T07:50:08.884Z,15.92
2023-06-26T07:51:08.881Z,17.40
2023-06-26T07:52:08.855Z,17.43
2023-06-26T07:53:08.863Z,18.12
2023-06-26T07:54:08.848Z,17.55
2023-06-26T07:55:08.889Z,18.20
2023-06-26T07:56:08.852Z,19.16
2023-06-26T07:57:08.821Z,20.49
2023-06-26T07:58:08.832Z,21.52
2023-06-26T07:59:08.812Z,22.24
2023-06-26T08:00:08.806Z,24.13
2023-06-26T08:01:09.044Z,26.34
2023-06-26T08:02:08.797Z,26.93
2023-06-26T08:03:12.654Z,27.70
2023-06-26T08:04:09.856Z,27.55
2023-06-26T08:05:08.985Z,24.20
2023-06-26T08:07:37.547Z,0.50
2023-06-26T08:08:37.512Z,0.50
2023-06-26T08:09:37.506Z,0.50
2023-06-26T08:10:37.947Z,0.50
2023-06-26T08:11:37.990Z,0.50
2023-06-26T08:12:37.513Z,0.50
2023-06-26T08:13:37.509Z,0.50
2023-06-26T08:14:37.506Z,0.52
2023-06-26T08:15:37.524Z,0.51
2023-06-26T08:16:37.588Z,0.44
2023-06-26T08:17:37.586Z,0.49
2023-06-26T08:18:37.510Z,0.50
2023-06-26T08:19:37.490Z,0.50
2023-06-26T08:20:37.721Z,0.50
2023-06-26T08:21:37.497Z,0.57
2023-06-26T08:22:37.498Z,0.58
2023-06-26T08:23:37.518Z,0.55
2023-06-26T08:24:37.535Z,0.57
2023-06-26T08:25:37.540Z,0.41
2023-06-26T08:26:38.511Z,0.34
2023-06-26T08:27:37.581Z,0.34
2023-06-26T08:28:37.599Z,0.38
2023-06-26T08:29:37.692Z,0.44
2023-06-26T08:30:38.809Z,0.48
2023-06-26T08:31:38.025Z,0.52
2023-06-26T08:32:37.862Z,0.53
2023-06-26T08:33:37.681Z,0.55
2023-06-26T08:34:37.686Z,0.59
2023-06-26T08:35:37.687Z,0.56
2023-06-26T08:36:37.697Z,0.62
2023-06-26T08:37:37.673Z,0.42
2023-06-26T08:38:37.683Z,0.40
2023-06-26T08:39:37.850Z,0.51
2023-06-26T08:40:38.064Z,0.51
2023-06-26T08:41:38.009Z,0.50
2023-06-26T08:42:37.770Z,0.51
2023-06-26T08:43:37.783Z,0.60
2023-06-26T08:44:46.082Z,0.59
2023-06-26T08:45:38.792Z,0.59
2023-06-26T08:46:37.873Z,0.60
2023-06-26T08:47:37.890Z,0.66
2023-06-26T08:48:37.801Z,0.75
2023-06-26T08:49:37.764Z,0.94
2023-06-26T08:50:38.069Z,1.04
2023-06-26T08:51:37.778Z,0.85
2023-06-26T08:52:37.746Z,0.89
2023-06-26T08:53:37.741Z,0.98
2023-06-26T08:54:37.746Z,0.78
2023-06-26T08:55:37.745Z,0.48
2023-06-26T08:56:37.736Z,0.34
2023-06-26T08:57:37.737Z,0.34
2023-06-26T08:58:37.732Z,0.34
2023-06-26T08:59:37.720Z,0.34
2023-06-26T09:00:38.133Z,0.34
2023-06-26T09:01:37.713Z,0.34
2023-06-26T09:02:37.832Z,0.34
2023-06-26T09:03:37.786Z,0.34
2023-06-26T09:04:37.883Z,0.41
2023-06-26T09:05:37.675Z,0.49
2023-06-26T09:06:37.705Z,0.49
2023-06-26T09:07:37.755Z,0.50
2023-06-26T09:08:37.642Z,0.49
2023-06-26T09:09:37.649Z,0.54
2023-06-26T09:10:37.855Z,0.60
2023-06-26T09:11:37.641Z,0.57
2023-06-26T09:12:37.652Z,0.65
2023-06-26T09:13:37.667Z,0.76
2023-06-26T09:14:37.681Z,1.00
2023-06-26T09:15:37.710Z,0.73
2023-06-26T09:16:37.769Z,0.68
2023-06-26T09:17:37.730Z,0.77
2023-06-26T09:18:37.719Z,0.92
2023-06-26T09:19:37.713Z,1.09
2023-06-26T09:20:38.238Z,1.04
2023-06-26T09:21:37.734Z,0.99
2023-06-26T09:22:37.722Z,1.00
2023-06-26T09:23:37.722Z,1.11
2023-06-26T09:24:37.713Z,1.01
2023-06-26T09:25:38.692Z,0.82
2023-06-26T09:26:37.754Z,0.74
2023-06-26T09:27:37.727Z,0.72
2023-06-26T09:28:37.732Z,0.75
2023-06-26T09:29:37.729Z,0.87
2023-06-26T09:30:38.221Z,0.92
2023-06-26T09:31:42.235Z,0.69
2023-06-26T09:32:38.956Z,0.56
2023-06-26T09:33:37.877Z,0.55
2023-06-26T09:34:37.764Z,0.49
2023-06-26T09:35:37.714Z,0.52
2023-06-26T09:36:40.056Z,0.52
2023-06-26T09:37:38.026Z,0.55
2023-06-26T09:38:37.712Z,0.56
2023-06-26T09:39:37.685Z,0.68
2023-06-26T09:40:37.943Z,0.71
2023-06-26T09:41:38.058Z,0.67
2023-06-26T09:42:37.669Z,0.62
2023-06-26T09:43:37.673Z,0.63
2023-06-26T09:44:37.729Z,0.80
2023-06-26T09:45:37.722Z,0.68
2023-06-26T09:46:38.081Z,0.63
2023-06-26T09:47:37.657Z,0.57
2023-06-26T09:48:37.624Z,0.55
2023-06-26T09:49:37.617Z,0.58
2023-06-26T09:50:38.014Z,0.58
2023-06-26T09:51:37.661Z,0.56
2023-06-26T09:52:37.839Z,0.55
2023-06-26T09:53:37.596Z,0.67
2023-06-26T09:54:37.605Z,0.70
2023-06-26T09:55:37.601Z,0.73
2023-06-26T09:56:37.610Z,0.70
2023-06-26T09:57:37.574Z,0.63
2023-06-26T09:58:37.567Z,0.60
2023-06-26T09:59:37.550Z,0.57
2023-06-26T10:00:37.794Z,0.57
2023-06-26T10:01:37.630Z,0.57
2023-06-26T10:02:37.684Z,0.50
2023-06-26T10:03:37.651Z,0.56
2023-06-26T10:04:37.721Z,0.66
2023-06-26T10:05:37.518Z,0.69
2023-06-26T10:06:37.571Z,0.69
2023-06-26T10:07:37.543Z,0.55
2023-06-26T10:08:37.651Z,0.55
2023-06-26T10:09:37.492Z,0.63
2023-06-26T10:10:37.799Z,0.62
2023-06-26T10:11:37.522Z,0.56
2023-06-26T10:12:37.501Z,0.71
2023-06-26T10:13:37.473Z,0.60
2023-06-26T10:14:37.472Z,0.54
2023-06-26T10:15:37.519Z,0.50
2023-06-26T10:16:37.486Z,0.66
2023-06-26T10:17:37.517Z,0.91
2023-06-26T10:18:37.436Z,1.01
2023-06-26T10:19:37.442Z,0.77
2023-06-26T10:20:37.732Z,0.67
2023-06-26T10:21:37.442Z,0.78
2023-06-26T10:22:37.415Z,0.58
2023-06-26T10:23:37.423Z,0.63
2023-06-26T10:24:37.424Z,0.73
2023-06-26T10:25:37.400Z,0.86
2023-06-26T10:26:37.427Z,0.72
2023-06-26T10:27:37.465Z,0.54
2023-06-26T10:28:37.380Z,0.49
2023-06-26T10:29:37.377Z,0.37
2023-06-26T10:30:37.443Z,0.37
2023-06-26T10:31:37.465Z,0.40
2023-06-26T10:32:37.371Z,0.50
2023-06-26T10:33:37.362Z,0.55
2023-06-26T10:34:37.380Z,0.57
2023-06-26T10:35:37.345Z,0.57
2023-06-26T10:36:37.359Z,0.61
2023-06-26T10:37:37.329Z,0.69
2023-06-26T10:38:37.385Z,0.87
2023-06-26T10:39:37.327Z,0.85
2023-06-26T10:40:37.536Z,0.59
2023-06-26T10:41:38.192Z,0.48
2023-06-26T10:42:37.323Z,0.44
2023-06-26T10:43:37.311Z,0.45
2023-06-26T10:44:37.298Z,0.49
2023-06-26T10:45:37.326Z,0.50
2023-06-26T10:46:37.307Z,0.51
2023-06-26T10:47:37.407Z,0.58
2023-06-26T10:48:37.345Z,0.50
2023-06-26T10:49:37.402Z,0.52
2023-06-26T10:50:37.574Z,0.71
2023-06-26T10:51:37.538Z,0.77
2023-06-26T10:52:37.609Z,0.81
2023-06-26T10:53:37.610Z,0.94
2023-06-26T10:54:37.663Z,1.08
2023-06-26T10:55:37.745Z,1.14
2023-06-26T10:56:38.085Z,1.37
2023-06-26T10:57:37.841Z,1.23
2023-06-26T10:58:37.916Z,0.74
2023-06-26T10:59:37.949Z,0.56
2023-06-26T11:00:38.283Z,0.54
2023-06-26T11:01:38.096Z,0.68
2023-06-26T11:02:38.117Z,0.83
2023-06-26T11:03:38.172Z,0.85
2023-06-26T11:04:38.273Z,0.84
2023-06-26T11:05:38.283Z,0.86
2023-06-26T11:06:38.329Z,0.94
2023-06-26T11:07:38.337Z,0.94
2023-06-26T11:08:38.344Z,0.98
2023-06-26T11:09:38.355Z,1.16
2023-06-26T11:10:38.549Z,1.58
2023-06-26T11:11:38.431Z,1.52
2023-06-26T11:12:38.504Z,1.69
2023-06-26T11:13:38.342Z,1.94
2023-06-26T11:14:38.379Z,2.15
2023-06-26T11:15:38.362Z,2.20
2023-06-26T11:16:38.380Z,2.15
2023-06-26T11:17:38.480Z,2.03
2023-06-26T11:18:38.391Z,2.15
2023-06-26T11:19:38.387Z,2.54
2023-06-26T11:20:38.568Z,2.30
2023-06-26T11:21:38.442Z,2.60
2023-06-26T11:22:38.405Z,2.42
2023-06-26T11:23:38.430Z,3.12
2023-06-26T11:24:38.450Z,3.20
2023-06-26T11:25:38.464Z,3.47
2023-06-26T11:26:38.503Z,3.67
2023-06-26T11:27:38.507Z,4.02
2023-06-26T11:28:38.558Z,3.72
2023-06-26T11:29:38.508Z,4.40
2023-06-26T11:30:38.829Z,4.91
2023-06-26T11:31:38.544Z,5.25
2023-06-26T11:32:38.679Z,5.45
2023-06-26T11:33:38.580Z,5.29
2023-06-26T11:34:38.689Z,6.03
2023-06-26T11:35:38.605Z,5.41
2023-06-26T11:36:38.637Z,5.45
2023-06-26T11:37:38.677Z,5.30
2023-06-26T11:38:38.659Z,5.90
2023-06-26T11:39:38.687Z,5.76
2023-06-26T11:40:39.277Z,6.45
2023-06-26T11:41:38.761Z,6.41
2023-06-26T11:42:38.718Z,7.11
2023-06-26T11:43:38.747Z,6.69
2023-06-26T11:44:38.758Z,6.12
2023-06-26T11:45:38.808Z,6.31
2023-06-26T11:46:38.844Z,6.48
2023-06-26T11:47:38.933Z,6.46
2023-06-26T11:48:38.885Z,6.35
2023-06-26T11:49:38.841Z,6.21
2023-06-26T11:50:39.175Z,6.63
2023-06-26T11:51:38.915Z,6.72
2023-06-26T11:52:38.876Z,6.54
2023-06-26T11:53:38.886Z,6.52
2023-06-26T11:54:38.897Z,6.41
2023-06-26T11:55:38.908Z,6.80
2023-06-26T11:56:38.938Z,7.38
2023-06-26T11:57:38.964Z,7.25
2023-06-26T11:58:38.974Z,7.77
2023-06-26T11:59:38.961Z,7.72
2023-06-26T12:00:39.261Z,7.09
2023-06-26T12:01:38.977Z,7.13
2023-06-26T12:02:39.025Z,6.81
2023-06-26T12:03:39.243Z,6.58
2023-06-26T12:04:39.145Z,6.74
2023-06-26T12:05:41.295Z,6.08
2023-06-26T12:06:39.042Z,6.59
2023-06-26T12:07:39.064Z,6.57
2023-06-26T12:08:39.066Z,6.54
2023-06-26T12:09:39.069Z,6.78
2023-06-26T12:10:39.292Z,6.94
2023-06-26T12:11:39.124Z,6.65
2023-06-26T12:12:39.119Z,6.47
2023-06-26T12:13:39.125Z,5.93
2023-06-26T12:14:39.124Z,6.36
2023-06-26T12:15:39.136Z,6.25
2023-06-26T12:16:39.191Z,6.27
2023-06-26T12:17:39.180Z,6.15
2023-06-26T12:18:39.181Z,5.58
2023-06-26T12:19:39.190Z,6.18
2023-06-26T12:20:39.376Z,5.45
2023-06-26T12:21:39.370Z,5.76
2023-06-26T12:22:39.242Z,5.60
2023-06-26T12:23:39.245Z,5.25
2023-06-26T12:24:39.243Z,5.59
2023-06-26T12:25:39.256Z,5.48
2023-06-26T12:26:39.302Z,5.58
2023-06-26T12:27:39.296Z,6.01
2023-06-26T12:28:39.297Z,5.16
2023-06-26T12:29:39.300Z,5.64
2023-06-26T12:30:39.520Z,5.99
2023-06-26T12:31:39.357Z,6.09
2023-06-26T12:32:39.371Z,5.86
2023-06-26T12:33:39.340Z,5.97
2023-06-26T12:34:39.377Z,5.70
2023-06-26T12:35:40.069Z,6.34
2023-06-26T12:36:39.373Z,6.00
2023-06-26T12:37:39.398Z,5.80
2023-06-26T12:38:39.406Z,6.20
2023-06-26T12:39:39.411Z,6.39
2023-06-26T12:40:39.697Z,6.60
2023-06-26T12:41:39.423Z,6.85
2023-06-26T12:42:39.437Z,6.88
2023-06-26T12:43:39.446Z,7.26
2023-06-26T12:44:39.458Z,6.94
2023-06-26T12:45:39.522Z,6.45
2023-06-26T12:46:39.548Z,6.22
2023-06-26T12:47:39.565Z,6.44
2023-06-26T12:48:39.592Z,6.46
2023-06-26T12:49:39.528Z,6.43
2023-06-26T12:50:39.840Z,6.53
2023-06-26T12:51:39.555Z,7.23
2023-06-26T12:52:39.581Z,7.40
2023-06-26T12:53:39.600Z,6.96
2023-06-26T12:54:39.609Z,6.73
2023-06-26T12:55:39.609Z,6.94
2023-06-26T12:56:39.638Z,6.81
2023-06-26T12:57:39.635Z,7.09
2023-06-26T12:58:39.639Z,7.09
2023-06-26T12:59:39.659Z,7.33
2023-06-26T13:00:39.824Z,6.82
2023-06-26T13:01:39.740Z,7.19
2023-06-26T13:02:39.738Z,7.23
2023-06-26T13:03:39.800Z,7.10
2023-06-26T13:04:39.692Z,5.90
2023-06-26T13:05:39.693Z,5.93
2023-06-26T13:06:39.709Z,5.49
2023-06-26T13:07:39.760Z,5.60
2023-06-26T13:08:39.699Z,5.16
2023-06-26T13:09:39.718Z,5.58
2023-06-26T13:10:40.009Z,5.96
2023-06-26T13:11:39.760Z,6.42
2023-06-26T13:12:39.727Z,5.50
2023-06-26T13:13:39.727Z,5.77
2023-06-26T13:14:39.800Z,5.35
2023-06-26T13:15:39.740Z,4.77
2023-06-26T13:16:39.955Z,4.86
2023-06-26T13:17:39.784Z,4.98
2023-06-26T13:18:39.772Z,5.39
2023-06-26T13:19:39.770Z,4.92